Time;durP1;ratioP1;P1;durP2;ratioP2;P2;SDS_P1;SDS_P2;PMS_P1;PMS_P2;Temp;Humidity;BMP_temperature;BMP_pressure;BME280_temperature;BME280_humidity;BME280_pressure;Samples;Min_cycle;Max_cycle;Signal;HPM_P1;HPM_P2
2022/02/21 00:02:21;;;;;;;8.65;3.67;;;;;;;4.83;55.38;99810.61;1769233;78;21070;-52
2022/02/21 00:04:47;;;;;;;7.97;3.98;;;;;;;4.84;55.48;99808.34;1761003;80;21069;-53
2022/02/21 00:07:16;;;;;;;8.08;3.95;;;;;;;4.86;55.69;99809.11;1771924;78;21018;-52
2022/02/21 00:09:42;;;;;;;8.63;3.52;;;;;;;4.85;55.62;99800.91;1742425;80;21030;-53
2022/02/21 00:12:10;;;;;;;8.38;4.20;;;;;;;4.86;55.75;99799.98;1775436;80;21081;-52
2022/02/21 00:14:37;;;;;;;8.03;3.05;;;;;;;4.89;55.79;99798.93;1773585;80;21038;-53
2022/02/21 00:17:06;;;;;;;9.43;3.62;;;;;;;4.91;55.83;99802.27;1768150;80;21070;-52
2022/02/21 00:19:33;;;;;;;7.00;3.55;;;;;;;4.91;55.85;99801.81;1760960;80;21156;-52
2022/02/21 00:22:00;;;;;;;8.10;3.62;;;;;;;4.91;55.85;99808.34;1796059;78;21574;-52
2022/02/21 00:24:29;;;;;;;8.63;3.83;;;;;;;4.90;55.93;99801.44;1752279;80;21031;-52
2022/02/21 00:26:56;;;;;;;8.80;3.75;;;;;;;4.91;55.97;99808.78;1773190;80;21112;-53
2022/02/21 00:29:23;;;;;;;7.70;3.50;;;;;;;4.88;55.99;99802.48;1771489;79;21055;-52
2022/02/21 00:31:50;;;;;;;10.32;4.10;;;;;;;4.84;56.02;99803.98;1781595;79;21117;-52
2022/02/21 00:34:16;;;;;;;9.08;4.20;;;;;;;4.83;56.14;99806.70;1774649;78;21094;-53
2022/02/21 00:36:43;;;;;;;7.20;3.47;;;;;;;4.78;56.21;99808.77;1773580;80;21038;-52
2022/02/21 00:39:10;;;;;;;7.58;3.47;;;;;;;4.76;56.29;99812.77;1769064;80;21066;-52
2022/02/21 00:41:37;;;;;;;10.38;3.55;;;;;;;4.73;56.44;99811.66;1776653;78;21150;-53
2022/02/21 00:44:05;;;;;;;6.03;3.33;;;;;;;4.70;56.44;99810.55;1739193;80;21117;-53
2022/02/21 00:46:31;;;;;;;6.58;3.37;;;;;;;4.65;56.54;99801.72;1741078;80;21082;-53
2022/02/21 00:48:58;;;;;;;6.62;3.22;;;;;;;4.63;56.66;99804.08;1772245;79;21026;-52
2022/02/21 00:51:26;;;;;;;8.08;4.30;;;;;;;4.61;56.73;99803.34;1765055;78;21536;-53
2022/02/21 00:53:52;;;;;;;12.47;4.55;;;;;;;4.57;56.74;99789.69;1770637;78;21449;-52
2022/02/21 00:56:21;;;;;;;7.17;3.30;;;;;;;4.52;56.80;99786.52;1780817;78;21113;-52
2022/02/21 00:58:47;;;;;;;7.45;3.80;;;;;;;4.49;56.86;99788.03;1767594;78;21516;-53
2022/02/21 01:01:14;;;;;;;8.65;3.50;;;;;;;4.43;56.97;99780.13;1762798;79;21015;-53
2022/02/21 01:03:42;;;;;;;8.68;3.40;;;;;;;4.38;57.08;99783.50;1777764;78;21089;-52
2022/02/21 01:06:08;;;;;;;8.73;3.80;;;;;;;4.30;57.34;99780.55;1782807;78;21125;-52
2022/02/21 01:08:35;;;;;;;7.30;3.40;;;;;;;4.25;57.77;99778.70;1775838;78;21043;-52
2022/02/21 01:11:01;;;;;;;8.63;3.98;;;;;;;4.18;57.97;99774.34;1786429;78;21116;-52
2022/02/21 01:13:28;;;;;;;7.20;3.47;;;;;;;4.12;58.25;99785.16;1793092;79;21043;-52
2022/02/21 01:15:54;;;;;;;10.80;4.42;;;;;;;4.06;58.52;99782.94;1793466;79;21061;-52
2022/02/21 01:18:21;;;;;;;8.65;3.90;;;;;;;4.00;58.71;99780.70;1790605;78;21552;-53
2022/02/21 01:20:48;;;;;;;8.60;3.98;;;;;;;3.98;58.92;99782.58;1782912;79;21054;-52
2022/02/21 01:23:16;;;;;;;12.18;3.90;;;;;;;4.03;59.05;99779.22;1775822;79;21049;-53
2022/02/21 01:25:43;;;;;;;9.75;3.75;;;;;;;4.06;59.13;99780.33;1772543;79;21061;-53
2022/02/21 01:28:09;;;;;;;8.90;3.52;;;;;;;4.08;59.21;99779.32;1776962;78;21065;-53
2022/02/21 01:30:36;;;;;;;6.53;2.67;;;;;;;4.07;59.32;99786.75;1790330;78;21050;-53
2022/02/21 01:33:02;;;;;;;7.97;3.62;;;;;;;4.04;59.43;99779.59;1776895;79;21483;-52
2022/02/21 01:35:29;;;;;;;10.50;4.20;;;;;;;3.99;59.54;99785.56;1788936;79;21558;-52
2022/02/21 01:37:55;;;;;;;7.47;3.25;;;;;;;3.93;59.72;99772.91;1783245;78;21476;-52
2022/02/21 01:40:22;;;;;;;7.00;3.52;;;;;;;3.86;59.90;99778.48;1780186;78;21076;-53
2022/02/21 01:42:49;;;;;;;7.58;3.92;;;;;;;3.81;60.07;99768.83;1779610;78;21489;-53
2022/02/21 01:45:15;;;;;;;7.92;3.40;;;;;;;3.76;60.22;99767.45;1779364;78;21536;-52
2022/02/21 01:47:41;;;;;;;7.03;3.42;;;;;;;3.70;60.62;99768.67;1769497;78;21011;-53
2022/02/21 01:50:08;;;;;;;6.12;3.12;;;;;;;3.65;60.85;99778.06;1775658;78;21034;-51
2022/02/21 01:52:36;;;;;;;7.53;3.37;;;;;;;3.60;61.11;99768.84;1788249;78;20990;-52
2022/02/21 01:55:05;;;;;;;6.12;3.12;;;;;;;3.57;61.37;99759.95;1773103;78;21149;-53
2022/02/21 01:57:33;;;;;;;8.10;3.42;;;;;;;3.53;61.77;99747.56;1781377;78;20986;-52
2022/02/21 02:00:03;;;;;;;7.00;3.42;;;;;;;3.49;61.90;99752.13;1778497;78;21112;-51
2022/02/21 02:02:33;;;;;;;8.33;3.05;;;;;;;3.48;62.05;99748.31;1788590;78;21525;-51
2022/02/21 02:05:01;;;;;;;7.90;3.35;;;;;;;3.50;62.22;99751.20;1793816;78;21173;-52
2022/02/21 02:07:28;;;;;;;8.55;3.55;;;;;;;3.57;62.30;99754.27;1796263;78;21087;-52
2022/02/21 02:09:55;;;;;;;8.63;3.08;;;;;;;3.60;62.39;99748.03;1772512;80;20995;-52
2022/02/21 02:12:21;;;;;;;4.97;2.37;;;;;;;3.58;62.58;99743.39;1749294;80;21070;-53
2022/02/21 02:14:48;;;;;;;6.28;2.75;;;;;;;3.57;62.73;99739.14;1757611;80;21105;-52
2022/02/21 02:17:15;;;;;;;7.30;3.05;;;;;;;3.56;62.83;99741.36;1739228;80;21050;-52
2022/02/21 02:19:45;;;;;;;6.20;3.22;;;;;;;3.52;62.92;99737.63;1786391;79;21128;-52
2022/02/21 02:22:16;;;;;;;7.37;3.40;;;;;;;3.49;63.01;99741.72;1768539;78;21007;-52
2022/02/21 02:24:44;;;;;;;7.45;3.15;;;;;;;3.47;63.18;99747.48;1777116;80;21057;-52
2022/02/21 02:27:10;;;;;;;6.83;3.08;;;;;;;3.44;63.26;99750.27;1741534;80;21061;-52
2022/02/21 02:29:38;;;;;;;7.05;3.58;;;;;;;3.39;63.40;99744.52;1776774;79;20985;-53
2022/02/21 02:32:06;;;;;;;8.08;3.27;;;;;;;3.37;63.58;99744.25;1755060;79;21058;-51
2022/02/21 02:34:32;;;;;;;8.55;3.55;;;;;;;3.37;63.64;99748.97;1749909;80;21078;-52
2022/02/21 02:36:59;;;;;;;5.72;2.52;;;;;;;3.43;63.58;99748.62;1774602;78;21006;-52
2022/02/21 02:39:26;;;;;;;11.28;3.42;;;;;;;3.46;63.61;99746.28;1771939;79;21308;-52
2022/02/21 02:41:54;;;;;;;6.12;2.90;;;;;;;3.44;63.68;99745.54;1749319;80;21089;-53
2022/02/21 02:44:21;;;;;;;5.95;3.12;;;;;;;3.42;63.68;99748.70;1780032;80;21135;-51
2022/02/21 02:46:47;;;;;;;7.72;2.52;;;;;;;3.40;63.65;99744.89;1776052;78;21108;-51
2022/02/21 02:49:13;;;;;;;6.00;3.37;;;;;;;3.37;63.75;99747.67;1774053;79;21050;-51
2022/02/21 02:51:40;;;;;;;6.78;3.15;;;;;;;3.31;63.79;99742.39;1773474;79;21089;-50
2022/02/21 02:54:10;;;;;;;6.85;3.08;;;;;;;3.26;63.96;99739.67;1768325;80;21053;-52
2022/02/21 02:56:39;;;;;;;9.45;3.20;;;;;;;3.19;64.16;99738.38;1766145;78;21142;-51
2022/02/21 02:59:06;;;;;;;6.92;2.90;;;;;;;3.13;64.31;99746.91;1772817;80;21532;-52
2022/02/21 03:01:33;;;;;;;6.42;3.02;;;;;;;3.16;64.29;99739.38;1773295;78;21008;-52
2022/02/21 03:04:01;;;;;;;6.35;2.60;;;;;;;3.22;64.31;99737.73;1778941;78;21050;-51
2022/02/21 03:06:29;;;;;;;6.28;2.58;;;;;;;3.27;64.28;99736.16;1774659;79;21074;-52
2022/02/21 03:08:56;;;;;;;7.03;3.30;;;;;;;3.30;64.28;99730.30;1771820;78;21084;-52
2022/02/21 03:11:22;;;;;;;7.05;3.30;;;;;;;3.28;64.33;99730.87;1760019;78;21125;-51
2022/02/21 03:13:48;;;;;;;6.03;3.35;;;;;;;3.27;64.41;99734.86;1775622;80;21096;-52
2022/02/21 03:16:15;;;;;;;6.80;2.90;;;;;;;3.25;64.44;99732.34;1773096;78;21082;-52
2022/02/21 03:18:42;;;;;;;7.50;2.70;;;;;;;3.22;64.54;99723.90;1770573;78;21097;-51
2022/02/21 03:21:08;;;;;;;5.92;3.55;;;;;;;3.19;64.60;99723.61;1773769;80;21047;-52
2022/02/21 03:23:34;;;;;;;5.95;2.83;;;;;;;3.16;64.62;99722.04;1753107;80;21007;-51
2022/02/21 03:26:01;;;;;;;6.17;2.80;;;;;;;3.14;64.74;99727.80;1770654;79;21564;-52
2022/02/21 03:28:27;;;;;;;7.25;3.02;;;;;;;3.09;64.85;99721.19;1770916;78;21047;-52
2022/02/21 03:30:54;;;;;;;7.25;2.80;;;;;;;3.11;64.83;99711.52;1774728;78;21061;-52
2022/02/21 03:33:21;;;;;;;6.12;2.62;;;;;;;3.18;64.80;99714.16;1785492;80;21108;-52
2022/02/21 03:35:48;;;;;;;6.10;2.65;;;;;;;3.19;64.73;99711.08;1769353;79;21054;-52
2022/02/21 03:38:14;;;;;;;6.65;2.65;;;;;;;3.20;64.88;99706.27;1787337;78;21135;-51
2022/02/21 03:40:42;;;;;;;7.15;2.87;;;;;;;3.16;64.95;99692.14;1788479;79;21557;-52
2022/02/21 03:43:09;;;;;;;7.85;3.15;;;;;;;3.13;65.01;99692.80;1785391;78;20983;-51
2022/02/21 03:45:36;;;;;;;6.42;3.17;;;;;;;3.09;65.09;99691.29;1784539;78;21151;-51
2022/02/21 03:48:04;;;;;;;5.80;2.83;;;;;;;3.08;65.21;99691.77;1787327;78;20983;-52
2022/02/21 03:50:30;;;;;;;6.37;2.92;;;;;;;3.05;65.20;99683.32;1758684;79;21510;-51
2022/02/21 03:52:57;;;;;;;7.58;3.27;;;;;;;3.06;65.27;99671.98;1755919;79;21572;-51
2022/02/21 03:55:23;;;;;;;5.65;2.37;;;;;;;3.12;65.10;99669.84;1785147;78;21045;-51
2022/02/21 03:57:49;;;;;;;6.70;2.72;;;;;;;3.23;65.00;99670.95;1771947;79;21151;-52
2022/02/21 04:00:18;;;;;;;5.78;2.50;;;;;;;3.32;64.80;99667.80;1788525;78;21067;-52
2022/02/21 04:02:45;;;;;;;6.70;3.35;;;;;;;3.41;64.68;99665.92;1773337;78;21078;-52
2022/02/21 04:05:14;;;;;;;10.18;3.52;;;;;;;3.43;64.53;99667.98;1766029;78;21013;-52
2022/02/21 04:07:45;;;;;;;6.20;2.55;;;;;;;3.43;64.50;99664.09;1737426;80;21548;-53
2022/02/21 04:10:13;;;;;;;7.30;3.62;;;;;;;3.43;64.50;99665.83;1762750;78;21071;-54
2022/02/21 04:12:41;;;;;;;6.42;3.17;;;;;;;3.42;64.46;99666.30;1769547;78;21560;-51
2022/02/21 04:15:09;;;;;;;7.08;3.37;;;;;;;3.41;64.41;99658.59;1739769;80;21320;-53
2022/02/21 04:18:33;;;;;;;7.97;3.98;;;;;;;3.37;64.63;99658.43;1789386;78;22641;-52
2022/02/21 04:21:00;;;;;;;8.88;4.03;;;;;;;3.33;64.53;99661.21;1729345;80;21054;-52
2022/02/21 04:23:26;;;;;;;8.53;3.70;;;;;;;3.32;64.51;99666.50;1684185;83;21200;-51
2022/02/21 04:25:52;;;;;;;7.55;3.65;;;;;;;3.33;64.44;99654.71;1706238;82;21038;-53
2022/02/21 04:28:19;;;;;;;11.25;4.28;;;;;;;3.44;64.32;99658.41;1711746;81;21057;-52
2022/02/21 04:30:45;;;;;;;9.65;4.03;;;;;;;3.48;64.17;99646.42;1688379;81;21041;-52
2022/02/21 04:33:12;;;;;;;6.62;3.77;;;;;;;3.51;64.08;99641.04;1690705;81;21121;-50
2022/02/21 04:35:39;;;;;;;8.53;4.30;;;;;;;3.53;64.00;99642.22;1716360;83;21198;-51
2022/02/21 04:38:05;;;;;;;9.28;4.10;;;;;;;3.55;63.86;99636.47;1662589;84;21064;-51
2022/02/21 04:40:32;;;;;;;8.88;4.05;;;;;;;3.56;63.75;99628.20;1688786;82;20963;-51
2022/02/21 04:42:59;;;;;;;7.72;3.83;;;;;;;3.57;63.64;99621.59;1696609;83;21477;-51
2022/02/21 04:45:25;;;;;;;8.20;3.85;;;;;;;3.59;63.54;99625.41;1699824;82;21985;-51
2022/02/21 04:47:52;;;;;;;8.48;3.85;;;;;;;3.59;63.49;99625.41;1709157;82;22304;-51
2022/02/21 04:50:18;;;;;;;10.00;3.80;;;;;;;3.59;63.42;99620.20;1702876;82;21078;-51
2022/02/21 04:52:46;;;;;;;10.28;3.70;;;;;;;3.65;63.27;99623.73;1703853;82;21332;-51
2022/02/21 04:55:13;;;;;;;8.95;4.30;;;;;;;3.74;63.07;99619.70;1671251;83;21346;-52
2022/02/21 04:57:40;;;;;;;8.70;4.37;;;;;;;3.83;62.88;99626.91;1715642;82;21130;-52
2022/02/21 05:00:09;;;;;;;10.48;4.25;;;;;;;3.84;62.70;99622.91;1701086;82;21134;-51
2022/02/21 05:02:36;;;;;;;8.83;4.33;;;;;;;3.85;62.58;99621.98;1703650;82;22219;-50
2022/02/21 05:05:07;;;;;;;9.15;4.53;;;;;;;3.88;62.39;99631.34;1696491;83;21032;-52
2022/02/21 05:07:34;;;;;;;8.35;4.15;;;;;;;3.85;62.26;99629.79;1708182;82;21038;-51
2022/02/21 05:10:00;;;;;;;9.98;4.12;;;;;;;3.85;62.20;99634.14;1681876;83;21062;-51
2022/02/21 05:12:27;;;;;;;6.22;3.55;;;;;;;3.83;62.24;99630.36;1701045;82;21146;-52
2022/02/21 05:14:53;;;;;;;9.10;4.05;;;;;;;3.84;62.21;99632.02;1689112;83;21072;-52
2022/02/21 05:17:19;;;;;;;9.30;3.87;;;;;;;3.83;62.13;99629.06;1700005;82;21036;-52
2022/02/21 05:19:47;;;;;;;6.70;3.40;;;;;;;3.85;62.13;99623.28;1700229;82;21127;-51
2022/02/21 05:22:13;;;;;;;6.45;3.02;;;;;;;3.86;62.05;99621.03;1695711;82;21059;-50
2022/02/21 05:24:40;;;;;;;6.15;2.87;;;;;;;3.95;61.86;99623.98;1691126;82;22891;-52
2022/02/21 05:27:07;;;;;;;8.93;3.92;;;;;;;4.06;61.67;99618.44;1697438;82;21420;-52
2022/02/21 05:29:33;;;;;;;6.30;3.40;;;;;;;4.12;61.42;99614.62;1690779;83;21498;-53
2022/02/21 05:31:59;;;;;;;10.78;4.00;;;;;;;4.16;61.15;99619.16;1698406;82;21138;-52
2022/02/21 05:34:26;;;;;;;7.17;3.75;;;;;;;4.17;60.91;99620.36;1702502;82;21107;-51
2022/02/21 05:36:52;;;;;;;8.18;3.65;;;;;;;4.17;60.90;99615.16;1699088;82;23334;-51
2022/02/21 05:39:19;;;;;;;11.10;4.10;;;;;;;4.18;60.70;99611.59;1696833;82;21359;-51
2022/02/21 05:41:45;;;;;;;9.40;3.72;;;;;;;4.19;60.55;99608.06;1699036;82;21367;-52
2022/02/21 05:44:12;;;;;;;8.48;3.55;;;;;;;4.20;60.47;99611.49;1696120;82;21082;-52
2022/02/21 05:46:40;;;;;;;8.83;3.72;;;;;;;4.21;60.48;99610.09;1704220;82;21066;-52
2022/02/21 05:49:09;;;;;;;6.65;3.20;;;;;;;4.24;60.20;99613.80;1697377;82;21456;-52
2022/02/21 05:51:36;;;;;;;8.03;3.85;;;;;;;4.24;60.13;99615.11;1697234;82;21135;-52
2022/02/21 05:54:03;;;;;;;8.05;3.87;;;;;;;4.29;60.03;99605.69;1699112;82;21059;-50
2022/02/21 05:56:30;;;;;;;8.28;3.70;;;;;;;4.27;59.72;99603.19;1693134;82;21617;-52
2022/02/21 05:58:57;;;;;;;8.25;3.87;;;;;;;4.29;59.68;99601.78;1676491;83;22288;-53
2022/02/21 06:01:23;;;;;;;10.93;4.17;;;;;;;4.30;59.55;99603.44;1699569;83;21601;-52
2022/02/21 06:03:49;;;;;;;9.60;4.17;;;;;;;4.33;59.53;99599.80;1732984;80;21502;-51
2022/02/21 06:06:16;;;;;;;8.60;4.08;;;;;;;4.39;59.45;99594.20;1720254;82;21089;-53
2022/02/21 06:08:43;;;;;;;8.85;3.87;;;;;;;4.52;59.10;99589.80;1735756;81;20992;-52
2022/02/21 06:11:10;;;;;;;6.30;3.00;;;;;;;4.61;58.73;99592.28;1734297;80;21042;-53
2022/02/21 06:13:38;;;;;;;7.15;3.55;;;;;;;4.65;58.69;99586.73;1734947;80;21043;-51
2022/02/21 06:16:05;;;;;;;7.95;3.58;;;;;;;4.68;58.61;99579.67;1701148;82;21078;-53
2022/02/21 06:18:35;;;;;;;7.80;3.85;;;;;;;4.72;58.26;99591.06;1695897;82;21268;-53
2022/02/21 06:21:01;;;;;;;7.90;3.37;;;;;;;4.73;58.17;99586.70;1693821;82;21093;-53
2022/02/21 06:23:28;;;;;;;8.00;3.62;;;;;;;4.74;57.97;99577.92;1721495;81;21078;-52
2022/02/21 06:25:54;;;;;;;5.87;3.10;;;;;;;4.77;57.94;99580.33;1727563;82;21210;-53
2022/02/21 06:28:24;;;;;;;6.42;3.30;;;;;;;4.80;57.72;99571.00;1693960;82;21109;-50
2022/02/21 06:30:51;;;;;;;7.55;3.40;;;;;;;4.81;57.67;99572.20;1699405;82;21062;-52
2022/02/21 06:33:18;;;;;;;8.43;3.50;;;;;;;4.83;57.37;99578.12;1727186;80;21023;-53
2022/02/21 06:35:45;;;;;;;7.42;3.33;;;;;;;4.84;57.34;99564.62;1725702;80;21061;-53
2022/02/21 06:38:12;;;;;;;7.80;3.67;;;;;;;4.87;57.22;99559.67;1732353;80;21149;-52
2022/02/21 06:40:39;;;;;;;7.75;3.10;;;;;;;4.88;57.08;99564.78;1736392;81;21039;-51
2022/02/21 06:43:05;;;;;;;7.00;3.60;;;;;;;4.93;57.00;99550.13;1726577;81;21104;-50
2022/02/21 06:45:32;;;;;;;6.28;3.25;;;;;;;4.95;56.75;99554.28;1723560;82;21086;-50
2022/02/21 06:47:58;;;;;;;9.05;3.50;;;;;;;4.99;56.44;99543.17;1728154;80;21062;-53
2022/02/21 06:50:26;;;;;;;6.20;2.92;;;;;;;5.02;56.23;99537.74;1727815;80;21122;-51
2022/02/21 06:52:53;;;;;;;13.18;3.98;;;;;;;5.06;56.17;99542.27;1732838;80;21518;-51
2022/02/21 06:55:19;;;;;;;6.97;3.33;;;;;;;5.08;55.89;99538.63;1734096;82;21563;-51
2022/02/21 06:57:47;;;;;;;7.80;3.12;;;;;;;5.14;55.83;99538.65;1726276;81;21118;-52
2022/02/21 07:00:15;;;;;;;8.03;3.58;;;;;;;5.15;55.66;99541.63;1707270;81;21090;-54
2022/02/21 07:02:42;;;;;;;9.05;3.80;;;;;;;5.18;55.56;99537.51;1719098;80;21115;-54
2022/02/21 07:05:10;;;;;;;5.58;2.92;;;;;;;5.21;55.56;99535.95;1735479;82;21032;-64
2022/02/21 07:07:37;;;;;;;7.08;3.20;;;;;;;5.25;55.35;99544.42;1732127;80;21503;-70
2022/02/21 07:10:04;;;;;;;7.62;3.45;;;;;;;5.26;55.30;99532.58;1730853;81;21050;-68
2022/02/21 07:12:33;;;;;;;9.13;3.35;;;;;;;5.27;55.03;99536.83;1734389;80;21489;-68
2022/02/21 07:15:00;;;;;;;8.28;3.10;;;;;;;5.27;55.00;99536.02;1728656;80;21174;-69
2022/02/21 07:17:27;;;;;;;9.30;2.83;;;;;;;5.28;54.85;99537.66;1682048;82;21073;-69
2022/02/21 07:19:55;;;;;;;7.08;2.62;;;;;;;5.29;55.00;99538.03;1733134;81;21055;-69
2022/02/21 07:22:22;;;;;;;7.87;3.40;;;;;;;5.33;54.77;99534.25;1720958;80;21074;-70
2022/02/21 07:24:48;;;;;;;12.88;4.40;;;;;;;5.35;54.61;99526.69;1696106;83;21058;-71
2022/02/21 07:27:15;;;;;;;6.60;3.33;;;;;;;5.39;54.66;99528.12;1731471;80;21298;-71
2022/02/21 07:29:42;;;;;;;8.33;3.22;;;;;;;5.45;54.66;99523.43;1712078;82;21702;-67
2022/02/21 07:32:08;;;;;;;7.40;3.08;;;;;;;5.49;54.23;99523.55;1738089;82;21593;-70
2022/02/21 07:34:35;;;;;;;11.60;3.77;;;;;;;5.54;54.20;99519.66;1740521;81;21057;-69
2022/02/21 07:37:02;;;;;;;7.40;3.15;;;;;;;5.61;54.30;99514.00;1698695;82;21118;-69
2022/02/21 07:39:33;;;;;;;9.10;3.50;;;;;;;5.67;53.89;99516.98;1676396;83;21110;-69
2022/02/21 07:42:00;;;;;;;16.17;4.05;;;;;;;5.73;53.82;99520.91;1736196;81;21034;-69
2022/02/21 07:44:26;;;;;;;8.80;3.20;;;;;;;5.77;53.14;99514.05;1728663;82;20996;-68
2022/02/21 07:46:52;;;;;;;15.78;3.87;;;;;;;5.83;53.23;99518.46;1733438;80;22126;-71
2022/02/21 07:49:20;;;;;;;8.20;3.52;;;;;;;5.86;53.17;99513.02;1728462;80;21067;-68
2022/02/21 07:51:46;;;;;;;8.88;3.30;;;;;;;5.89;52.93;99512.80;1698987;82;21046;-70
2022/02/21 07:54:13;;;;;;;10.78;3.75;;;;;;;5.91;52.70;99507.80;1682372;82;21089;-64
2022/02/21 07:56:39;;;;;;;8.15;3.30;;;;;;;5.94;52.51;99504.14;1680008;83;21007;-67
2022/02/21 07:59:06;;;;;;;8.18;3.05;;;;;;;5.99;52.33;99503.84;1692691;82;21102;-71
2022/02/21 08:01:32;;;;;;;5.40;2.45;;;;;;;6.01;52.32;99497.54;1736913;81;21560;-70
2022/02/21 08:03:59;;;;;;;10.63;4.05;;;;;;;6.04;52.22;99492.57;1739067;81;21477;-66
2022/02/21 08:06:25;;;;;;;7.62;3.40;;;;;;;6.09;52.20;99477.38;1732352;82;21018;-69
2022/02/21 08:08:52;;;;;;;8.10;3.72;;;;;;;6.13;51.90;99481.41;1738304;81;21050;-66
2022/02/21 08:11:19;;;;;;;6.90;3.40;;;;;;;6.17;51.76;99483.31;1740155;81;21596;-65
2022/02/21 08:13:45;;;;;;;6.78;3.37;;;;;;;6.23;51.72;99482.86;1740032;80;21051;-71
2022/02/21 08:16:12;;;;;;;8.70;3.02;;;;;;;6.26;51.45;99486.06;1736966;81;21126;-68
2022/02/21 08:18:38;;;;;;;8.25;3.25;;;;;;;6.31;51.32;99487.84;1736942;80;21103;-68
2022/02/21 08:21:06;;;;;;;6.50;2.98;;;;;;;6.35;51.39;99488.92;1723385;81;21129;-72
2022/02/21 08:23:33;;;;;;;8.48;3.22;;;;;;;6.40;51.00;99490.70;1735846;80;21108;-68
2022/02/21 08:25:59;;;;;;;7.03;3.08;;;;;;;6.45;50.94;99484.16;1692965;82;21583;-71
2022/02/21 08:28:25;;;;;;;11.03;4.17;;;;;;;6.51;50.82;99485.49;1698737;82;21328;-71
2022/02/21 08:30:52;;;;;;;8.38;2.77;;;;;;;6.60;50.97;99489.17;1682740;84;21102;-69
2022/02/21 08:33:19;;;;;;;9.65;3.15;;;;;;;6.68;50.66;99488.92;1680213;82;21757;-68
2022/02/21 08:35:45;;;;;;;6.37;2.92;;;;;;;6.78;50.22;99489.52;1692189;82;21090;-63
2022/02/21 08:38:12;;;;;;;7.37;3.02;;;;;;;6.85;49.98;99478.93;1732601;80;21541;-65
2022/02/21 08:40:40;;;;;;;6.30;3.00;;;;;;;6.92;49.67;99490.56;1734160;80;21683;-63
2022/02/21 08:43:06;;;;;;;9.63;3.02;;;;;;;6.98;49.69;99473.08;1737040;81;21042;-68
2022/02/21 08:45:33;;;;;;;9.45;3.10;;;;;;;7.06;49.02;99468.53;1738078;80;21086;-66
2022/02/21 08:47:59;;;;;;;6.78;2.85;;;;;;;7.10;48.88;99472.58;1733759;81;21524;-64
2022/02/21 08:50:26;;;;;;;7.95;2.77;;;;;;;7.15;48.93;99473.04;1679310;83;21719;-63
2022/02/21 08:52:52;;;;;;;9.58;2.85;;;;;;;7.19;48.79;99471.83;1694687;82;21123;-62
2022/02/21 08:55:19;;;;;;;9.35;2.98;;;;;;;7.24;48.51;99463.12;1703909;83;21492;-63
2022/02/21 08:57:46;;;;;;;9.35;2.95;;;;;;;7.27;48.36;99471.22;1672002;84;21127;-63
2022/02/21 09:00:14;;;;;;;7.45;2.70;;;;;;;7.30;48.25;99456.58;1703806;83;21726;-61
2022/02/21 09:02:44;;;;;;;6.85;2.85;;;;;;;7.36;48.24;99463.09;1700915;83;21570;-66
2022/02/21 09:05:11;;;;;;;10.28;3.05;;;;;;;7.40;48.08;99457.98;1700068;83;21133;-65
2022/02/21 09:07:38;;;;;;;6.20;2.90;;;;;;;7.43;47.90;99449.39;1656026;84;21121;-64
2022/02/21 09:10:06;;;;;;;6.17;2.67;;;;;;;7.50;47.60;99448.87;1726491;82;21675;-65
2022/02/21 09:12:34;;;;;;;9.55;3.00;;;;;;;7.55;47.75;99451.97;1735455;81;21083;-68
2022/02/21 09:15:01;;;;;;;9.00;2.75;;;;;;;7.61;47.47;99435.25;1735814;80;21095;-67
2022/02/21 09:17:30;;;;;;;7.80;2.85;;;;;;;7.67;47.64;99429.18;1734779;80;23680;-66
2022/02/21 09:19:57;;;;;;;10.65;3.17;;;;;;;7.76;47.62;99437.07;1736268;80;21003;-66
2022/02/21 09:22:23;;;;;;;6.58;2.55;;;;;;;7.86;47.15;99425.35;1736705;80;21062;-65
2022/02/21 09:24:50;;;;;;;6.65;3.02;;;;;;;7.93;46.84;99426.98;1735874;80;21130;-70
2022/02/21 09:27:17;;;;;;;7.08;2.77;;;;;;;7.98;47.04;99430.03;1733960;80;21108;-64
2022/02/21 09:29:45;;;;;;;5.58;2.58;;;;;;;8.05;46.61;99419.38;1727239;81;21109;-64
2022/02/21 09:32:11;;;;;;;8.78;2.65;;;;;;;8.13;46.67;99423.49;1722468;80;21795;-63
2022/02/21 09:34:39;;;;;;;9.10;3.20;;;;;;;8.23;46.13;99412.23;1719601;81;22254;-66
2022/02/21 09:37:05;;;;;;;6.40;2.50;;;;;;;8.33;46.12;99400.82;1723651;81;21102;-64
2022/02/21 09:39:32;;;;;;;8.15;2.75;;;;;;;8.45;46.05;99394.20;1702818;82;21177;-65
2022/02/21 09:41:59;;;;;;;4.90;2.10;;;;;;;8.55;45.66;99400.30;1700740;82;21788;-65
2022/02/21 09:44:27;;;;;;;7.40;3.25;;;;;;;8.63;45.43;99407.52;1680546;82;21097;-63
2022/02/21 09:46:54;;;;;;;5.45;2.58;;;;;;;8.68;45.04;99398.76;1727574;81;21078;-67
2022/02/21 09:49:20;;;;;;;6.50;2.67;;;;;;;8.70;45.07;99395.52;1734313;80;21053;-63
2022/02/21 09:51:48;;;;;;;6.65;2.72;;;;;;;8.68;44.97;99394.33;1724598;81;21115;-63
2022/02/21 09:54:14;;;;;;;8.23;3.30;;;;;;;8.67;45.08;99395.28;1690989;83;21126;-66
2022/02/21 09:56:43;;;;;;;4.87;2.20;;;;;;;8.67;45.28;99391.84;1696992;82;21672;-64
2022/02/21 09:59:10;;;;;;;6.20;2.35;;;;;;;8.65;45.12;99376.73;1695865;82;21070;-65
2022/02/21 10:01:38;;;;;;;6.08;2.42;;;;;;;8.64;44.98;99369.81;1695078;83;21131;-61
2022/02/21 10:04:05;;;;;;;6.20;3.02;;;;;;;8.62;45.09;99362.58;1702678;82;21613;-67
2022/02/21 10:06:32;;;;;;;10.80;2.47;;;;;;;8.61;44.80;99364.84;1706287;83;21122;-65
2022/02/21 10:09:11;;;;;;;8.75;3.00;;;;;;;8.56;44.94;99366.58;1703131;83;21126;-66
2022/02/21 10:11:44;;;;;;;9.00;2.83;;;;;;;8.53;45.03;99366.34;1700773;82;21060;-67
2022/02/21 10:14:19;;;;;;;5.60;2.17;;;;;;;8.49;45.09;99368.91;1703244;82;21020;-65
2022/02/21 10:16:48;;;;;;;7.12;2.80;;;;;;;8.47;45.06;99372.61;1680338;83;21040;-63
2022/02/21 10:19:28;;;;;;;7.33;2.83;;;;;;;8.46;45.35;99372.28;1692211;83;21101;-66
2022/02/21 10:22:10;;;;;;;5.97;2.60;;;;;;;8.44;45.44;99359.30;1691374;83;21073;-65
2022/02/21 10:24:46;;;;;;;8.73;2.52;;;;;;;8.46;45.52;99368.35;1669045;85;21599;-65
2022/02/21 10:27:21;;;;;;;7.97;2.80;;;;;;;8.48;45.21;99368.55;1673538;83;21099;-61
2022/02/21 10:29:59;;;;;;;6.47;2.83;;;;;;;8.47;45.36;99359.50;1730170;81;21489;-64
2022/02/21 10:32:29;;;;;;;8.78;2.60;;;;;;;8.49;45.47;99357.56;1731909;81;21101;-61
2022/02/21 10:34:58;;;;;;;6.05;2.40;;;;;;;8.50;45.37;99352.69;1729483;81;21129;-65
2022/02/21 10:37:27;;;;;;;6.45;2.22;;;;;;;8.49;45.46;99351.86;1717904;81;21081;-63
2022/02/21 10:40:10;;;;;;;6.92;2.58;;;;;;;8.50;45.48;99325.16;1667287;83;21081;-63
2022/02/21 10:42:38;;;;;;;4.95;2.25;;;;;;;8.52;45.40;99348.13;1715083;81;21635;-63
2022/02/21 10:45:15;;;;;;;7.03;2.55;;;;;;;8.49;45.54;99349.24;1731084;81;21295;-64
2022/02/21 10:48:05;;;;;;;5.42;2.42;;;;;;;8.48;45.93;99342.33;1733826;81;21065;-66
2022/02/21 10:50:36;;;;;;;6.53;2.58;;;;;;;8.51;45.81;99337.31;1705599;81;21564;-65
2022/02/21 10:53:12;;;;;;;6.97;2.33;;;;;;;8.56;46.00;99341.66;1665794;85;21100;-65
2022/02/21 10:55:40;;;;;;;7.22;3.30;;;;;;;8.57;45.96;99335.93;1649396;85;21038;-64
2022/02/21 10:58:21;;;;;;;5.15;2.33;;;;;;;8.61;46.30;99342.55;1672738;85;21117;-65
2022/02/21 11:00:49;;;;;;;5.12;2.30;;;;;;;8.66;46.09;99333.82;1733891;81;21024;-64
2022/02/21 11:03:25;;;;;;;7.05;2.77;;;;;;;8.73;45.93;99337.05;1739056;81;21580;-64
2022/02/21 11:05:53;;;;;;;6.08;2.60;;;;;;;8.80;45.79;99324.22;1731675;81;21057;-65
2022/02/21 11:08:22;;;;;;;5.50;2.62;;;;;;;8.91;45.14;99325.90;1739246;81;21073;-66
2022/02/21 11:10:57;;;;;;;8.70;2.62;;;;;;;8.99;45.33;99331.75;1734245;81;23666;-64
2022/02/21 11:13:23;;;;;;;5.12;2.30;;;;;;;9.08;45.40;99324.38;1739637;81;21999;-67
2022/02/21 11:15:52;;;;;;;5.37;2.75;;;;;;;9.20;45.30;99319.80;1693815;81;21481;-61
2022/02/21 11:18:19;;;;;;;6.28;2.85;;;;;;;9.27;45.11;99311.20;1740531;81;21484;-67
2022/02/21 11:20:46;;;;;;;11.50;2.55;;;;;;;9.36;44.97;99299.52;1718597;82;21123;-65
2022/02/21 11:23:13;;;;;;;7.08;2.72;;;;;;;9.42;45.10;99308.97;1725333;81;21050;-63
2022/02/21 11:25:59;;;;;;;9.25;2.70;;;;;;;9.48;44.50;99312.36;1733769;81;21085;-64
2022/02/21 11:28:34;;;;;;;6.33;2.30;;;;;;;9.51;44.51;99305.16;1696819;82;22347;-66
2022/02/21 11:31:02;;;;;;;5.62;2.58;;;;;;;9.53;44.31;99290.08;1679678;83;20988;-63
2022/02/21 11:33:31;;;;;;;6.10;2.42;;;;;;;9.52;44.60;99291.88;1671492;83;21182;-63
2022/02/21 11:36:09;;;;;;;7.58;2.05;;;;;;;9.55;44.59;99292.92;1697946;82;21080;-66
2022/02/21 11:38:40;;;;;;;6.08;2.22;;;;;;;9.56;44.73;99291.11;1702987;84;21479;-65
2022/02/21 11:41:08;;;;;;;5.83;2.27;;;;;;;9.54;44.88;99289.94;1704627;83;21116;-68
2022/02/21 11:43:39;;;;;;;5.58;2.37;;;;;;;9.58;44.93;99290.02;1663862;84;21628;-64
2022/02/21 11:46:23;;;;;;;5.95;2.00;;;;;;;9.60;44.82;99279.33;1688915;83;21071;-67